Time;durP1;ratioP1;P1;durP2;ratioP2;P2;SDS_P1;SDS_P2;PMS_P1;PMS_P2;Temp;Humidity;BMP_temperature;BMP_pressure;BME280_temperature;BME280_humidity;BME280_pressure;Samples;Min_cycle;Max_cycle;Signal;HPM_P1;HPM_P2
2022/02/19 00:02:22;;;;;;;62.83;3.27;;;;;;;;;;5093190;28;20537;-71
2022/02/19 00:04:49;;;;;;;60.90;3.20;;;;;;;;;;5092821;28;20764;-71
2022/02/19 00:07:17;;;;;;;60.97;2.73;;;;;;;;;;5093020;28;20445;-71
2022/02/19 00:09:44;;;;;;;59.97;3.27;;;;;;;;;;5092949;28;20487;-72
2022/02/19 00:12:11;;;;;;;60.50;3.00;;;;;;;;;;5093648;28;20447;-71
2022/02/19 00:14:39;;;;;;;62.67;2.83;;;;;;;;;;5083343;28;20570;-71
2022/02/19 00:17:06;;;;;;;61.40;3.47;;;;;;;;;;5072732;28;20966;-71
2022/02/19 00:19:33;;;;;;;59.17;3.20;;;;;;;;;;5072596;28;20444;-71
2022/02/19 00:22:00;;;;;;;62.67;3.47;;;;;;;;;;5072534;28;20545;-71
2022/02/19 00:24:29;;;;;;;65.73;3.40;;;;;;;;;;5072444;28;20556;-71
2022/02/19 00:26:56;;;;;;;62.23;2.80;;;;;;;;;;5072283;28;20455;-71
2022/02/19 00:29:23;;;;;;;65.47;3.40;;;;;;;;;;5071839;28;20489;-71
2022/02/19 00:31:51;;;;;;;61.10;3.27;;;;;;;;;;5072600;28;20493;-71
2022/02/19 00:34:18;;;;;;;61.93;3.53;;;;;;;;;;5072637;28;20549;-72
2022/02/19 00:36:45;;;;;;;61.10;3.30;;;;;;;;;;5072677;28;20453;-71
2022/02/19 00:39:12;;;;;;;61.07;2.90;;;;;;;;;;5071857;28;20537;-71
2022/02/19 00:41:42;;;;;;;62.90;3.40;;;;;;;;;;5071978;28;20483;-71
2022/02/19 00:44:10;;;;;;;63.27;3.60;;;;;;;;;;5071858;28;20476;-71
2022/02/19 00:46:37;;;;;;;59.57;3.27;;;;;;;;;;5070484;28;20543;-71
2022/02/19 00:49:04;;;;;;;60.53;3.40;;;;;;;;;;5071730;28;20480;-72
2022/02/19 00:51:32;;;;;;;60.93;3.27;;;;;;;;;;5072248;28;20532;-71
2022/02/19 00:53:59;;;;;;;63.87;3.57;;;;;;;;;;5072253;28;20464;-70
2022/02/19 00:56:26;;;;;;;61.60;3.77;;;;;;;;;;5072176;28;20534;-72
2022/02/19 00:58:55;;;;;;;62.43;3.23;;;;;;;;;;5072054;28;20526;-71
2022/02/19 01:01:23;;;;;;;59.50;3.40;;;;;;;;;;5071929;28;20458;-71
2022/02/19 01:03:52;;;;;;;62.67;3.03;;;;;;;;;;5071615;28;21064;-71
2022/02/19 01:06:19;;;;;;;60.57;3.50;;;;;;;;;;5071545;28;20456;-71
2022/02/19 01:08:47;;;;;;;63.40;3.13;;;;;;;;;;5071301;28;20480;-72
2022/02/19 01:11:14;;;;;;;60.67;3.90;;;;;;;;;;5071760;28;20528;-71
2022/02/19 01:13:41;;;;;;;61.03;3.50;;;;;;;;;;5071468;28;21248;-71
2022/02/19 01:16:09;;;;;;;60.70;3.33;;;;;;;;;;5071716;28;21014;-70
2022/02/19 01:18:36;;;;;;;64.20;3.53;;;;;;;;;;5085669;28;20536;-71
2022/02/19 01:21:04;;;;;;;64.23;3.23;;;;;;;;;;5091399;28;20448;-72
2022/02/19 01:23:31;;;;;;;60.30;3.40;;;;;;;;;;5091545;28;20892;-71
2022/02/19 01:25:58;;;;;;;62.27;3.87;;;;;;;;;;5091573;28;20449;-71
2022/02/19 01:28:25;;;;;;;63.90;4.00;;;;;;;;;;5090761;28;20503;-71
2022/02/19 01:30:52;;;;;;;63.00;3.30;;;;;;;;;;5091793;28;20445;-71
2022/02/19 01:33:21;;;;;;;65.40;3.00;;;;;;;;;;5091768;28;20463;-72
2022/02/19 01:35:48;;;;;;;61.43;3.27;;;;;;;;;;5091816;28;20509;-71
2022/02/19 01:38:17;;;;;;;59.60;3.00;;;;;;;;;;5091469;28;20457;-71
2022/02/19 01:40:44;;;;;;;64.17;3.20;;;;;;;;;;5091357;28;20496;-72
2022/02/19 01:43:11;;;;;;;64.97;3.60;;;;;;;;;;5091488;28;20830;-71
2022/02/19 01:45:39;;;;;;;60.60;3.30;;;;;;;;;;5091126;28;20575;-71
2022/02/19 01:48:06;;;;;;;58.73;3.17;;;;;;;;;;5091295;28;20943;-72
2022/02/19 01:50:34;;;;;;;59.50;2.77;;;;;;;;;;5070714;28;20446;-72
2022/02/19 01:53:02;;;;;;;63.93;3.10;;;;;;;;;;5071215;28;20542;-71
2022/02/19 01:55:30;;;;;;;63.93;2.97;;;;;;;;;;5071525;28;20527;-71
2022/02/19 01:57:57;;;;;;;60.40;3.20;;;;;;;;;;5070935;28;20979;-71
2022/02/19 02:00:25;;;;;;;60.70;2.97;;;;;;;;;;5070956;28;20450;-72
2022/02/19 02:02:52;;;;;;;58.80;2.80;;;;;;;;;;5071094;28;20211;-71
2022/02/19 02:05:19;;;;;;;63.70;3.10;;;;;;;;;;5070977;28;20476;-71
2022/02/19 02:07:48;;;;;;;60.73;2.97;;;;;;;;;;5070464;28;20471;-72
2022/02/19 02:10:15;;;;;;;62.40;3.23;;;;;;;;;;5071035;28;20576;-71
2022/02/19 02:12:43;;;;;;;66.20;3.60;;;;;;;;;;5071345;28;20535;-71
2022/02/19 02:15:23;;;;;;;62.10;3.00;;;;;;;;;;5071243;28;20230;-71
2022/02/19 02:17:50;;;;;;;59.67;3.47;;;;;;;;;;5070832;28;20457;-72
2022/02/19 02:20:18;;;;;;;64.70;3.10;;;;;;;;;;5069376;28;20449;-71
2022/02/19 02:22:47;;;;;;;64.03;3.50;;;;;;;;;;5070538;28;20534;-71
2022/02/19 02:25:14;;;;;;;61.17;3.40;;;;;;;;;;5070586;28;20501;-71
2022/02/19 02:27:41;;;;;;;59.90;3.00;;;;;;;;;;5070474;28;20472;-71
2022/02/19 02:30:08;;;;;;;60.05;2.90;;;;;;;;;;5084287;28;20484;-71
2022/02/19 02:32:36;;;;;;;62.90;3.83;;;;;;;;;;5091086;28;20206;-72
2022/02/19 02:35:03;;;;;;;59.03;2.70;;;;;;;;;;5091029;28;20462;-72
2022/02/19 02:37:30;;;;;;;64.05;3.45;;;;;;;;;;5090844;28;20737;-71
2022/02/19 02:39:59;;;;;;;64.43;3.55;;;;;;;;;;5091310;28;20201;-71
2022/02/19 02:42:26;;;;;;;61.63;2.97;;;;;;;;;;5090576;28;20245;-71
2022/02/19 02:44:53;;;;;;;60.55;3.50;;;;;;;;;;5083929;28;20477;-71
2022/02/19 02:47:20;;;;;;;63.08;3.35;;;;;;;;;;5070689;28;20641;-71
2022/02/19 02:49:47;;;;;;;59.47;3.05;;;;;;;;;;5070733;28;20320;-72
2022/02/19 02:52:15;;;;;;;60.83;3.40;;;;;;;;;;5069563;28;20210;-71
2022/02/19 02:54:42;;;;;;;59.57;3.50;;;;;;;;;;5070548;28;20607;-71
2022/02/19 02:57:10;;;;;;;63.88;3.25;;;;;;;;;;5072341;28;20539;-71
2022/02/19 02:59:37;;;;;;;59.55;3.10;;;;;;;;;;5074617;28;20289;-71
2022/02/19 03:02:05;;;;;;;59.30;2.70;;;;;;;;;;5074018;28;20205;-71
2022/02/19 03:04:32;;;;;;;62.40;3.30;;;;;;;;;;5073949;28;20236;-71
2022/02/19 03:07:00;;;;;;;61.40;2.97;;;;;;;;;;5073898;28;20213;-72
2022/02/19 03:09:28;;;;;;;62.30;3.30;;;;;;;;;;5073695;28;20659;-71
2022/02/19 03:11:55;;;;;;;61.83;3.33;;;;;;;;;;5074254;28;20220;-71
2022/02/19 03:14:23;;;;;;;61.07;3.03;;;;;;;;;;5073834;28;20721;-71
2022/02/19 03:16:50;;;;;;;59.63;2.85;;;;;;;;;;5074336;28;20462;-72
2022/02/19 03:19:17;;;;;;;61.47;3.35;;;;;;;;;;5073880;28;20205;-71
2022/02/19 03:21:45;;;;;;;61.35;3.30;;;;;;;;;;5073781;28;20293;-72
2022/02/19 03:24:12;;;;;;;60.20;3.30;;;;;;;;;;5072625;28;20733;-71
2022/02/19 03:26:39;;;;;;;61.22;2.90;;;;;;;;;;5074220;28;20759;-71
2022/02/19 03:29:06;;;;;;;60.63;2.90;;;;;;;;;;5073811;28;20236;-71
2022/02/19 03:31:34;;;;;;;60.95;3.20;;;;;;;;;;5074278;28;20575;-71
2022/02/19 03:34:02;;;;;;;61.00;3.00;;;;;;;;;;5073930;28;20268;-71
2022/02/19 03:36:29;;;;;;;61.17;3.33;;;;;;;;;;5074048;28;20599;-71
2022/02/19 03:38:56;;;;;;;60.63;3.55;;;;;;;;;;5073888;28;20445;-70
2022/02/19 03:41:23;;;;;;;59.03;2.90;;;;;;;;;;5074393;28;20292;-71
2022/02/19 03:43:50;;;;;;;61.65;2.83;;;;;;;;;;5073916;28;20652;-70
2022/02/19 03:46:17;;;;;;;62.22;3.58;;;;;;;;;;5073995;28;20659;-71
2022/02/19 03:48:46;;;;;;;59.85;3.70;;;;;;;;;;5073487;28;20274;-71
2022/02/19 03:51:13;;;;;;;60.47;2.90;;;;;;;;;;5073623;28;20292;-73
2022/02/19 03:53:40;;;;;;;61.75;2.97;;;;;;;;;;5073945;28;20206;-71
2022/02/19 03:56:07;;;;;;;64.38;2.88;;;;;;;;;;5073691;28;20207;-71
2022/02/19 03:58:34;;;;;;;62.25;3.60;;;;;;;;;;5073463;28;20300;-70
2022/02/19 04:01:02;;;;;;;70.80;3.40;;;;;;;;;;5073627;28;20217;-71
2022/02/19 04:03:29;;;;;;;60.85;3.15;;;;;;;;;;5073492;28;20205;-72
2022/02/19 04:05:58;;;;;;;63.47;3.50;;;;;;;;;;5073368;28;20293;-71
2022/02/19 04:08:25;;;;;;;63.03;4.00;;;;;;;;;;5072812;28;20443;-71
2022/02/19 04:10:52;;;;;;;65.47;4.43;;;;;;;;;;5073306;28;20221;-71
2022/02/19 04:13:20;;;;;;;61.55;3.58;;;;;;;;;;5073376;28;20201;-71
2022/02/19 04:15:47;;;;;;;59.95;3.00;;;;;;;;;;5073355;28;20230;-71
2022/02/19 04:18:15;;;;;;;63.92;3.17;;;;;;;;;;5072893;28;20205;-71
2022/02/19 04:20:42;;;;;;;61.28;3.35;;;;;;;;;;5073068;28;20204;-71
2022/02/19 04:23:10;;;;;;;61.00;3.45;;;;;;;;;;5073316;28;20201;-70
2022/02/19 04:25:37;;;;;;;63.17;3.88;;;;;;;;;;5073083;28;20224;-70
2022/02/19 04:28:06;;;;;;;61.42;3.60;;;;;;;;;;5072836;28;20213;-71
2022/02/19 04:30:33;;;;;;;61.45;3.58;;;;;;;;;;5072920;28;20278;-70
2022/02/19 04:33:01;;;;;;;59.67;3.17;;;;;;;;;;5072726;28;20213;-72
2022/02/19 04:35:28;;;;;;;59.85;3.30;;;;;;;;;;5073053;28;20227;-71
2022/02/19 04:37:55;;;;;;;66.97;3.63;;;;;;;;;;5072667;28;20202;-70
2022/02/19 04:40:24;;;;;;;60.17;3.33;;;;;;;;;;5072938;28;20201;-71
2022/02/19 04:42:51;;;;;;;59.50;3.25;;;;;;;;;;5072711;28;20301;-70
2022/02/19 04:45:19;;;;;;;63.55;3.38;;;;;;;;;;5072565;28;20235;-72
2022/02/19 04:47:46;;;;;;;59.67;3.28;;;;;;;;;;5072280;28;20583;-70
2022/02/19 04:50:13;;;;;;;67.90;3.30;;;;;;;;;;5072884;28;20225;-71
2022/02/19 04:52:43;;;;;;;66.80;3.80;;;;;;;;;;5072766;28;20238;-72
2022/02/19 04:55:10;;;;;;;61.80;3.38;;;;;;;;;;5072534;28;20237;-71
2022/02/19 04:57:43;;;;;;;63.13;3.40;;;;;;;;;;5072155;28;20703;-71
2022/02/19 05:00:10;;;;;;;60.67;3.22;;;;;;;;;;5072669;28;20239;-70
2022/02/19 05:02:38;;;;;;;61.85;3.90;;;;;;;;;;5072430;28;20211;-71
2022/02/19 05:05:05;;;;;;;64.00;4.28;;;;;;;;;;5072521;28;20236;-72
2022/02/19 05:07:32;;;;;;;61.53;3.63;;;;;;;;;;5072084;28;20201;-70
2022/02/19 05:09:59;;;;;;;58.47;3.05;;;;;;;;;;5072295;28;20252;-71
2022/02/19 05:12:27;;;;;;;61.17;3.40;;;;;;;;;;5072375;28;20200;-71
2022/02/19 05:14:55;;;;;;;61.10;3.17;;;;;;;;;;5072441;28;20235;-71
2022/02/19 05:17:22;;;;;;;60.95;3.00;;;;;;;;;;5071972;28;20205;-71
2022/02/19 05:19:49;;;;;;;61.13;3.58;;;;;;;;;;5071548;28;20205;-71
2022/02/19 05:22:16;;;;;;;62.55;3.38;;;;;;;;;;5071743;28;20212;-71
2022/02/19 05:24:44;;;;;;;63.15;3.75;;;;;;;;;;5071970;28;20229;-71
2022/02/19 05:27:11;;;;;;;60.70;3.20;;;;;;;;;;5071656;28;20217;-70
2022/02/19 05:29:38;;;;;;;67.47;3.58;;;;;;;;;;5071873;28;20229;-70
2022/02/19 05:32:07;;;;;;;65.43;3.42;;;;;;;;;;5072072;28;20663;-70
2022/02/19 05:34:34;;;;;;;59.88;3.33;;;;;;;;;;5071712;28;20731;-71
2022/02/19 05:37:01;;;;;;;60.28;3.20;;;;;;;;;;5071755;28;20209;-71
2022/02/19 05:39:28;;;;;;;63.53;3.40;;;;;;;;;;5072359;28;20297;-71
2022/02/19 05:41:55;;;;;;;71.35;4.32;;;;;;;;;;5072005;28;20215;-71
2022/02/19 05:44:23;;;;;;;61.50;3.88;;;;;;;;;;5071556;28;20796;-71
2022/02/19 05:46:50;;;;;;;63.95;3.70;;;;;;;;;;5071842;28;20204;-71
2022/02/19 05:49:18;;;;;;;65.40;3.60;;;;;;;;;;5071527;28;20295;-71
2022/02/19 05:51:45;;;;;;;64.88;3.78;;;;;;;;;;5071673;28;20212;-71
2022/02/19 05:54:12;;;;;;;66.47;4.05;;;;;;;;;;5071622;28;20315;-71
2022/02/19 05:56:39;;;;;;;62.17;3.63;;;;;;;;;;5071958;28;20291;-71
2022/02/19 05:59:07;;;;;;;65.22;4.53;;;;;;;;;;5071306;28;20211;-71
2022/02/19 06:01:34;;;;;;;64.32;3.75;;;;;;;;;;5071760;28;20205;-70
2022/02/19 06:04:01;;;;;;;62.00;3.75;;;;;;;;;;5071533;28;20264;-71
2022/02/19 06:06:29;;;;;;;60.92;3.22;;;;;;;;;;5071540;28;20292;-71
2022/02/19 06:08:57;;;;;;;62.33;3.90;;;;;;;;;;5071096;28;20667;-71
2022/02/19 06:11:24;;;;;;;68.15;4.35;;;;;;;;;;5071599;28;20610;-71
2022/02/19 06:13:51;;;;;;;63.22;4.00;;;;;;;;;;5071638;28;20238;-72
2022/02/19 06:16:18;;;;;;;61.97;3.05;;;;;;;;;;5071659;28;20296;-71
2022/02/19 06:18:46;;;;;;;67.03;3.83;;;;;;;;;;5071234;28;20205;-72
2022/02/19 06:21:13;;;;;;;62.38;3.05;;;;;;;;;;5070789;28;20204;-72
2022/02/19 06:23:41;;;;;;;61.28;3.65;;;;;;;;;;5071559;28;20295;-71
2022/02/19 06:26:08;;;;;;;63.72;3.80;;;;;;;;;;5071449;28;20208;-70
2022/02/19 06:28:36;;;;;;;71.60;4.78;;;;;;;;;;5070868;28;20304;-71
2022/02/19 06:31:03;;;;;;;63.03;3.40;;;;;;;;;;5071559;28;20229;-70
2022/02/19 06:33:30;;;;;;;62.42;3.83;;;;;;;;;;5075142;28;20220;-71
2022/02/19 06:35:57;;;;;;;62.47;3.40;;;;;;;;;;5075268;28;20231;-71
2022/02/19 06:38:24;;;;;;;62.72;3.30;;;;;;;;;;5075047;28;20204;-71
2022/02/19 06:40:53;;;;;;;62.88;3.78;;;;;;;;;;5075430;28;20205;-70
2022/02/19 06:43:20;;;;;;;61.22;3.40;;;;;;;;;;5075063;28;20211;-71
2022/02/19 06:45:47;;;;;;;63.53;3.10;;;;;;;;;;5074964;28;20225;-71
2022/02/19 06:48:14;;;;;;;70.20;3.97;;;;;;;;;;5074647;28;20580;-70
2022/02/19 06:50:41;;;;;;;74.05;3.47;;;;;;;;;;5074822;28;20231;-71
2022/02/19 06:53:08;;;;;;;68.28;3.83;;;;;;;;;;5074956;28;20212;-71
2022/02/19 06:55:36;;;;;;;62.10;3.58;;;;;;;;;;5074771;28;20255;-71
2022/02/19 06:58:04;;;;;;;61.05;3.80;;;;;;;;;;5074513;28;20200;-71
2022/02/19 07:00:31;;;;;;;63.63;3.45;;;;;;;;;;5074588;28;20201;-71
2022/02/19 07:02:58;;;;;;;59.90;3.28;;;;;;;;;;5074531;28;20201;-71
2022/02/19 07:05:25;;;;;;;65.78;3.58;;;;;;;;;;5074497;28;20225;-71
2022/02/19 07:07:53;;;;;;;68.22;3.60;;;;;;;;;;5074543;28;20296;-71
2022/02/19 07:10:20;;;;;;;64.65;3.35;;;;;;;;;;5074760;28;20592;-71
2022/02/19 07:12:47;;;;;;;64.43;3.65;;;;;;;;;;5074444;28;20634;-71
2022/02/19 07:15:20;;;;;;;60.75;3.60;;;;;;;;;;5074249;28;20221;-71
2022/02/19 07:17:48;;;;;;;61.85;2.90;;;;;;;;;;5074351;28;20211;-71
2022/02/19 07:20:15;;;;;;;61.10;3.10;;;;;;;;;;5074460;28;20201;-71
2022/02/19 07:22:42;;;;;;;63.75;3.78;;;;;;;;;;5074279;28;20262;-71
2022/02/19 07:25:10;;;;;;;64.32;2.97;;;;;;;;;;5074238;28;20225;-71
2022/02/19 07:27:38;;;;;;;62.15;3.38;;;;;;;;;;5073925;28;20209;-71
2022/02/19 07:30:05;;;;;;;63.90;3.50;;;;;;;;;;5074010;28;20233;-72
2022/02/19 07:32:34;;;;;;;60.92;3.50;;;;;;;;;;5074307;28;20591;-71
2022/02/19 07:35:01;;;;;;;62.92;4.32;;;;;;;;;;5073648;28;20766;-73
2022/02/19 07:37:28;;;;;;;69.60;4.45;;;;;;;;;;5073923;28;20201;-70
2022/02/19 07:39:55;;;;;;;62.88;3.30;;;;;;;;;;5073248;28;20769;-72
2022/02/19 07:42:22;;;;;;;60.53;3.63;;;;;;;;;;5073604;28;20209;-71
2022/02/19 07:44:51;;;;;;;67.03;3.50;;;;;;;;;;5073228;28;20221;-71
2022/02/19 07:47:22;;;;;;;75.53;4.35;;;;;;;;;;5073510;28;20308;-71
2022/02/19 07:58:22;;;;;;;60.75;3.53;;;;;;;;;;5034482;28;20207;-71
2022/02/19 08:00:50;;;;;;;66.68;3.33;;;;;;;;;;5073265;28;20212;-70
2022/02/19 08:03:17;;;;;;;64.43;3.40;;;;;;;;;;5072877;28;20675;-71
2022/02/19 08:05:46;;;;;;;61.35;3.47;;;;;;;;;;5073099;28;20227;-71
2022/02/19 08:08:13;;;;;;;61.22;3.35;;;;;;;;;;5072789;28;20209;-71
2022/02/19 08:10:40;;;;;;;60.97;3.25;;;;;;;;;;5072873;28;20229;-71
2022/02/19 08:13:08;;;;;;;63.35;3.65;;;;;;;;;;5072803;28;20205;-71
2022/02/19 08:15:35;;;;;;;62.65;3.40;;;;;;;;;;5072745;28;20651;-71
2022/02/19 08:18:02;;;;;;;59.10;3.45;;;;;;;;;;5072984;28;20216;-71
2022/02/19 08:20:30;;;;;;;65.20;3.55;;;;;;;;;;5073326;28;20636;-71
2022/02/19 08:22:59;;;;;;;62.53;3.20;;;;;;;;;;5073369;28;20216;-71
2022/02/19 08:25:26;;;;;;;63.15;4.00;;;;;;;;;;5073213;28;20221;-72
2022/02/19 08:27:53;;;;;;;64.63;3.55;;;;;;;;;;5072730;28;20229;-71
2022/02/19 08:30:21;;;;;;;67.45;3.35;;;;;;;;;;5072747;28;20700;-71
2022/02/19 08:32:48;;;;;;;65.75;3.45;;;;;;;;;;5073291;28;20596;-70
2022/02/19 08:35:16;;;;;;;62.42;3.80;;;;;;;;;;5072968;28;20229;-71
2022/02/19 08:37:43;;;;;;;60.00;3.15;;;;;;;;;;5072772;28;20624;-71
2022/02/19 08:40:14;;;;;;;59.10;3.25;;;;;;;;;;5072897;28;20209;-72
2022/02/19 08:42:42;;;;;;;59.72;2.83;;;;;;;;;;5072819;28;20259;-71
2022/02/19 08:45:09;;;;;;;69.50;3.80;;;;;;;;;;5072617;28;20713;-71
2022/02/19 08:47:37;;;;;;;63.15;3.08;;;;;;;;;;5072499;28;20293;-71
2022/02/19 08:50:05;;;;;;;64.40;3.80;;;;;;;;;;5072646;28;20288;-71
2022/02/19 08:52:32;;;;;;;67.47;3.30;;;;;;;;;;5072568;28;20445;-71
2022/02/19 08:55:00;;;;;;;61.20;3.10;;;;;;;;;;5072434;28;20220;-71
2022/02/19 08:57:28;;;;;;;62.75;3.40;;;;;;;;;;5072059;28;20983;-71
2022/02/19 08:59:55;;;;;;;64.10;3.88;;;;;;;;;;5072751;28;20202;-72
2022/02/19 09:02:22;;;;;;;65.93;4.63;;;;;;;;;;5072348;28;20294;-70
2022/02/19 09:04:49;;;;;;;62.88;4.13;;;;;;;;;;5072498;28;20311;-71
2022/02/19 09:07:17;;;;;;;60.50;4.70;;;;;;;;;;5072232;28;20288;-71
2022/02/19 09:09:46;;;;;;;67.30;4.35;;;;;;;;;;5072420;28;20445;-71
2022/02/19 09:12:14;;;;;;;64.22;3.10;;;;;;;;;;5072532;28;20239;-71
2022/02/19 09:14:43;;;;;;;60.17;3.50;;;;;;;;;;5072028;28;20241;-72
2022/02/19 09:17:10;;;;;;;65.75;3.13;;;;;;;;;;5071921;28;20459;-71
2022/02/19 09:19:37;;;;;;;62.67;3.00;;;;;;;;;;5072283;28;20260;-71
2022/02/19 09:22:04;;;;;;;60.83;3.40;;;;;;;;;;5072032;28;20686;-69
2022/02/19 09:24:32;;;;;;;67.43;3.20;;;;;;;;;;5072061;28;20470;-70
2022/02/19 09:27:01;;;;;;;59.60;2.90;;;;;;;;;;5071977;28;20937;-71
2022/02/19 09:29:28;;;;;;;62.90;3.03;;;;;;;;;;5071819;28;20463;-71
2022/02/19 09:31:56;;;;;;;62.70;3.30;;;;;;;;;;5072075;28;20506;-71
2022/02/19 09:34:23;;;;;;;62.95;3.05;;;;;;;;;;5072124;28;20469;-71
2022/02/19 09:36:51;;;;;;;59.03;3.00;;;;;;;;;;5072041;28;20298;-71
2022/02/19 09:39:18;;;;;;;60.50;3.23;;;;;;;;;;5071610;28;20572;-71
2022/02/19 09:41:45;;;;;;;60.73;3.03;;;;;;;;;;5071797;28;20536;-71
2022/02/19 09:44:13;;;;;;;62.90;4.60;;;;;;;;;;5071820;28;20486;-71
2022/02/19 09:46:40;;;;;;;58.70;2.97;;;;;;;;;;5071984;28;20976;-71
2022/02/19 09:49:09;;;;;;;63.27;3.10;;;;;;;;;;5071578;28;20534;-71
2022/02/19 09:51:37;;;;;;;60.33;3.27;;;;;;;;;;5071042;28;20488;-71
2022/02/19 09:54:04;;;;;;;64.57;4.30;;;;;;;;;;5071927;28;20624;-71
2022/02/19 09:56:31;;;;;;;60.27;3.40;;;;;;;;;;5071871;28;20445;-71
2022/02/19 09:58:59;;;;;;;62.43;2.77;;;;;;;;;;5071094;28;20922;-71
2022/02/19 10:01:27;;;;;;;62.63;3.50;;;;;;;;;;5071815;28;20546;-71
2022/02/19 10:03:57;;;;;;;61.73;3.03;;;;;;;;;;5071473;28;20473;-72
2022/02/19 10:06:30;;;;;;;59.27;3.70;;;;;;;;;;5072438;28;20482;-69
2022/02/19 10:09:10;;;;;;;64.17;3.70;;;;;;;;;;5075362;28;21015;-71
2022/02/19 10:11:37;;;;;;;59.60;3.27;;;;;;;;;;5075744;28;20564;-72
2022/02/19 10:14:20;;;;;;;61.80;3.40;;;;;;;;;;5075754;28;20473;-71
2022/02/19 10:17:02;;;;;;;60.10;3.20;;;;;;;;;;5075600;28;20453;-71
2022/02/19 10:19:29;;;;;;;59.93;3.00;;;;;;;;;;5075727;28;20449;-71
2022/02/19 10:22:10;;;;;;;59.17;3.10;;;;;;;;;;5075799;28;20446;-70
2022/02/19 10:24:37;;;;;;;61.10;3.30;;;;;;;;;;5075245;28;20458;-71
2022/02/19 10:27:05;;;;;;;65.13;3.23;;;;;;;;;;5075127;28;20437;-71
2022/02/19 10:29:37;;;;;;;60.97;3.23;;;;;;;;;;5075309;28;20489;-71
2022/02/19 10:32:05;;;;;;;64.37;3.87;;;;;;;;;;5075407;28;20487;-71
2022/02/19 10:34:32;;;;;;;60.57;2.97;;;;;;;;;;5075184;28;20628;-70
2022/02/19 10:36:59;;;;;;;61.07;3.03;;;;;;;;;;5075234;28;20454;-70
2022/02/19 10:39:29;;;;;;;59.53;3.00;;;;;;;;;;5075046;28;21042;-71
2022/02/19 10:41:57;;;;;;;60.17;3.90;;;;;;;;;;5075083;28;20549;-72
2022/02/19 10:44:25;;;;;;;60.47;3.47;;;;;;;;;;5075118;28;20473;-71
2022/02/19 10:46:53;;;;;;;66.87;3.70;;;;;;;;;;5075182;28;20996;-70
2022/02/19 10:49:20;;;;;;;60.37;3.60;;;;;;;;;;5074826;28;20452;-70
2022/02/19 10:51:47;;;;;;;61.43;3.30;;;;;;;;;;5074946;28;20488;-70
2022/02/19 10:54:20;;;;;;;59.33;2.90;;;;;;;;;;5074629;28;20473;-71
2022/02/19 10:56:48;;;;;;;59.97;2.93;;;;;;;;;;5075054;28;20537;-71
2022/02/19 10:59:16;;;;;;;60.50;2.90;;;;;;;;;;5074692;28;20455;-71
2022/02/19 11:01:44;;;;;;;63.70;3.30;;;;;;;;;;5074950;28;20444;-71
2022/02/19 11:04:13;;;;;;;59.27;3.10;;;;;;;;;;5074642;28;20545;-69
2022/02/19 11:06:41;;;;;;;65.13;3.03;;;;;;;;;;5074509;28;20948;-71
2022/02/19 11:09:09;;;;;;;58.60;3.37;;;;;;;;;;5074596;28;20446;-70
2022/02/19 11:11:36;;;;;;;60.10;3.30;;;;;;;;;;5074717;28;20486;-71
2022/02/19 11:14:05;;;;;;;60.57;2.93;;;;;;;;;;5074366;28;20466;-71
2022/02/19 11:16:33;;;;;;;59.87;3.13;;;;;;;;;;5074578;28;20456;-70
2022/02/19 11:19:00;;;;;;;58.80;2.67;;;;;;;;;;5072853;28;20454;-70
2022/02/19 11:21:28;;;;;;;63.50;2.87;;;;;;;;;;5074286;28;20448;-71
2022/02/19 11:23:56;;;;;;;61.07;2.63;;;;;;;;;;5074358;28;20466;-72
2022/02/19 11:26:23;;;;;;;60.50;2.73;;;;;;;;;;5074230;28;21030;-70
2022/02/19 11:28:51;;;;;;;62.07;3.27;;;;;;;;;;5074142;28;20453;-70
2022/02/19 11:31:20;;;;;;;62.87;3.03;;;;;;;;;;5074002;28;20480;-71
2022/02/19 11:33:50;;;;;;;58.37;2.77;;;;;;;;;;5073837;28;20452;-71
2022/02/19 11:36:25;;;;;;;67.40;3.00;;;;;;;;;;5074479;28;20522;-70
2022/02/19 11:38:54;;;;;;;58.60;2.60;;;;;;;;;;5074108;28;20450;-71
2022/02/19 11:41:31;;;;;;;58.73;3.03;;;;;;;;;;5073970;28;20447;-71
2022/02/19 11:43:58;;;;;;;58.57;2.97;;;;;;;;;;5073892;28;20467;-71
2022/02/19 11:46:33;;;;;;;64.10;3.27;;;;;;;;;;5073903;28;20452;-71
2022/02/19 11:49:16;;;;;;;59.90;2.93;;;;;;;;;;5073621;28;20460;-71
2022/02/19 11:51:44;;;;;;;60.27;2.70;;;;;;;;;;5073885;28;20575;-72
2022/02/19 11:54:25;;;;;;;59.37;2.57;;;;;;;;;;5073716;28;20550;-71
2022/02/19 11:56:52;;;;;;;62.40;2.80;;;;;;;;;;5073898;28;20926;-71
2022/02/19 11:59:21;;;;;;;62.90;2.87;;;;;;;;;;5073489;28;20538;-70
2022/02/19 12:02:09;;;;;;;60.00;3.07;;;;;;;;;;5073871;28;20814;-71
2022/02/19 12:04:37;;;;;;;58.37;2.77;;;;;;;;;;5073327;28;20483;-71
2022/02/19 12:07:15;;;;;;;58.53;2.83;;;;;;;;;;5073392;28;20443;-71
2022/02/19 12:10:00;;;;;;;62.93;3.20;;;;;;;;;;5073736;28;20451;-70
2022/02/19 12:12:28;;;;;;;59.90;2.70;;;;;;;;;;5073324;28;20479;-71
2022/02/19 12:14:58;;;;;;;59.50;2.60;;;;;;;;;;5073280;28;20839;-71
2022/02/19 12:17:28;;;;;;;60.30;2.83;;;;;;;;;;5073158;28;20444;-71
2022/02/19 12:20:05;;;;;;;58.33;2.63;;;;;;;;;;5073460;28;20938;-71
2022/02/19 12:22:33;;;;;;;63.57;3.00;;;;;;;;;;5073309;28;20449;-71
2022/02/19 12:25:00;;;;;;;59.13;2.63;;;;;;;;;;5073443;28;20574;-71
2022/02/19 12:27:28;;;;;;;60.67;3.03;;;;;;;;;;5072732;28;20452;-70
2022/02/19 12:30:10;;;;;;;60.37;2.80;;;;;;;;;;5072711;28;20913;-71
2022/02/19 12:32:45;;;;;;;60.50;3.30;;;;;;;;;;5072738;28;20584;-71
2022/02/19 12:35:12;;;;;;;59.07;2.97;;;;;;;;;;5073131;28;20470;-70
2022/02/19 12:37:39;;;;;;;58.60;3.17;;;;;;;;;;5072662;28;20453;-71
2022/02/19 12:40:07;;;;;;;59.53;2.93;;;;;;;;;;5072889;28;20486;-71
2022/02/19 12:42:34;;;;;;;59.23;2.93;;;;;;;;;;5072643;28;20444;-71
2022/02/19 12:45:02;;;;;;;60.73;3.50;;;;;;;;;;5072959;28;20474;-70
2022/02/19 12:47:29;;;;;;;59.80;3.80;;;;;;;;;;5072633;28;20447;-72
2022/02/19 12:49:58;;;;;;;59.00;3.37;;;;;;;;;;5072815;28;20534;-71
2022/02/19 12:52:25;;;;;;;59.70;2.90;;;;;;;;;;5072615;28;20573;-71
2022/02/19 12:54:52;;;;;;;60.37;3.23;;;;;;;;;;5072521;28;20475;-71
2022/02/19 12:57:20;;;;;;;59.77;3.20;;;;;;;;;;5072244;28;20538;-71
2022/02/19 12:59:48;;;;;;;60.00;3.13;;;;;;;;;;5072620;28;20450;-71
2022/02/19 13:02:18;;;;;;;60.60;3.00;;;;;;;;;;5072259;28;20651;-71
2022/02/19 13:04:46;;;;;;;61.77;3.17;;;;;;;;;;5072508;28;20459;-71
2022/02/19 13:07:20;;;;;;;58.73;3.10;;;;;;;;;;5072145;28;20444;-71
2022/02/19 13:09:49;;;;;;;62.80;3.10;;;;;;;;;;5072514;28;20519;-71
2022/02/19 13:12:16;;;;;;;59.80;2.70;;;;;;;;;;5072309;28;20482;-71
2022/02/19 13:14:50;;;;;;;58.60;2.50;;;;;;;;;;5072441;28;20501;-71
2022/02/19 13:17:17;;;;;;;60.03;3.53;;;;;;;;;;5071949;28;20454;-69
2022/02/19 13:19:45;;;;;;;60.77;3.00;;;;;;;;;;5072040;28;20456;-71
2022/02/19 13:22:13;;;;;;;59.37;2.70;;;;;;;;;;5071978;28;20507;-71
2022/02/19 13:24:42;;;;;;;66.03;2.87;;;;;;;;;;5072099;28;20517;-71
2022/02/19 13:27:11;;;;;;;61.27;3.10;;;;;;;;;;5071822;28;20461;-72
2022/02/19 13:29:38;;;;;;;60.90;3.40;;;;;;;;;;5071979;28;20549;-71
2022/02/19 13:32:06;;;;;;;61.90;2.87;;;;;;;;;;5071951;28;20479;-71
2022/02/19 13:34:33;;;;;;;61.90;2.60;;;;;;;;;;5071607;28;20893;-72
2022/02/19 13:37:00;;;;;;;61.80;2.70;;;;;;;;;;5072064;28;20451;-71
2022/02/19 13:39:35;;;;;;;59.50;2.50;;;;;;;;;;5071919;28;20821;-75
2022/02/19 13:42:04;;;;;;;58.70;2.43;;;;;;;;;;5071161;28;20442;-72
2022/02/19 13:44:31;;;;;;;58.90;2.50;;;;;;;;;;5071661;28;20561;-71
2022/02/19 13:46:59;;;;;;;60.07;2.70;;;;;;;;;;5072064;28;20450;-71
2022/02/19 13:49:35;;;;;;;59.90;2.70;;;;;;;;;;5071495;28;20534;-71
2022/02/19 13:52:02;;;;;;;58.50;2.50;;;;;;;;;;5071954;28;20485;-72
2022/02/19 13:54:39;;;;;;;61.60;2.83;;;;;;;;;;5071726;28;20562;-71
2022/02/19 13:57:20;;;;;;;59.67;2.90;;;;;;;;;;5071715;28;20447;-71
2022/02/19 14:00:00;;;;;;;59.67;2.97;;;;;;;;;;5071607;28;20447;-72
2022/02/19 14:02:28;;;;;;;62.50;2.77;;;;;;;;;;5071595;28;20443;-71
2022/02/19 14:04:59;;;;;;;58.20;2.50;;;;;;;;;;5071789;28;20481;-71
2022/02/19 14:07:26;;;;;;;60.50;2.70;;;;;;;;;;5071571;28;20481;-71
2022/02/19 14:10:04;;;;;;;58.93;2.30;;;;;;;;;;5071600;28;20540;-70
2022/02/19 14:12:36;;;;;;;59.33;2.47;;;;;;;;;;5071672;28;20518;-70
2022/02/19 14:15:03;;;;;;;60.13;2.73;;;;;;;;;;5071410;28;20471;-70
2022/02/19 14:17:38;;;;;;;58.80;2.90;;;;;;;;;;5071227;28;20443;-70
2022/02/19 14:20:09;;;;;;;67.77;3.27;;;;;;;;;;5071636;28;20443;-70
2022/02/19 14:22:39;;;;;;;58.33;2.43;;;;;;;;;;5071315;28;20444;-70
2022/02/19 14:25:07;;;;;;;58.30;2.60;;;;;;;;;;5071704;28;20518;-70
2022/02/19 14:27:48;;;;;;;57.40;2.30;;;;;;;;;;5071330;28;20835;-70
2022/02/19 14:30:15;;;;;;;59.37;2.47;;;;;;;;;;5071646;28;20967;-71
2022/02/19 14:32:43;;;;;;;58.80;2.53;;;;;;;;;;5071445;28;20483;-70
2022/02/19 14:35:10;;;;;;;58.13;2.53;;;;;;;;;;5071561;28;20467;-70
2022/02/19 14:37:37;;;;;;;61.07;2.70;;;;;;;;;;5071023;28;20455;-70
2022/02/19 14:40:05;;;;;;;59.93;2.47;;;;;;;;;;5071465;28;20452;-70
2022/02/19 14:42:32;;;;;;;60.37;2.60;;;;;;;;;;5071191;28;20474;-70
2022/02/19 14:45:01;;;;;;;59.83;2.90;;;;;;;;;;5071500;28;20467;-70
2022/02/19 14:47:28;;;;;;;57.70;3.00;;;;;;;;;;5070806;28;20454;-70